Time;durP1;ratioP1;P1;durP2;ratioP2;P2;SDS_P1;SDS_P2;PMS_P1;PMS_P2;Temp;Humidity;BMP_temperature;BMP_pressure;BME280_temperature;BME280_humidity;BME280_pressure;Samples;Min_cycle;Max_cycle;Signal;HPM_P1;HPM_P2
2023/09/26 00:00:41;;;;;;;8.70;5.97;;;15.00;81.30;;;;;;20548780;28;20048;-42
2023/09/26 00:10:41;;;;;;;9.70;5.90;;;15.00;79.60;;;;;;20548331;28;20133;-41
2023/09/26 00:20:42;;;;;;;11.88;6.55;;;14.90;85.40;;;;;;20549778;28;20125;-41
2023/09/26 00:30:43;;;;;;;10.57;6.80;;;14.70;92.90;;;;;;20546872;28;20049;-41
2023/09/26 00:40:43;;;;;;;10.68;7.10;;;14.70;91.20;;;;;;20557818;28;20109;-41
2023/09/26 00:50:45;;;;;;;12.18;7.57;;;14.60;94.30;;;;;;20569979;28;19969;-41
2023/09/26 01:00:47;;;;;;;13.32;7.60;;;14.60;95.60;;;;;;20574026;28;20023;-41
2023/09/26 01:10:48;;;;;;;10.75;7.40;;;14.60;98.80;;;;;;20568694;28;20408;-41
2023/09/26 01:20:50;;;;;;;13.10;8.90;;;14.50;99.90;;;;;;20570383;28;20042;-41
2023/09/26 01:30:51;;;;;;;12.77;8.52;;;14.40;99.90;;;;;;20575635;28;20092;-41
2023/09/26 01:40:51;;;;;;;14.75;10.38;;;14.40;99.90;;;;;;20585552;28;20049;-41
2023/09/26 01:50:52;;;;;;;14.30;9.82;;;14.50;99.90;;;;;;20583292;28;20034;-41
2023/09/26 02:00:53;;;;;;;15.77;10.10;;;14.50;99.90;;;;;;20585323;28;20113;-41
2023/09/26 02:10:54;;;;;;;13.93;10.02;;;14.60;99.90;;;;;;20580177;28;20038;-41
2023/09/26 02:20:55;;;;;;;14.80;11.65;;;14.60;99.90;;;;;;20579823;28;20043;-41
2023/09/26 02:30:56;;;;;;;13.70;10.63;;;14.50;99.90;;;;;;20582504;28;20401;-41
2023/09/26 02:40:56;;;;;;;16.25;12.20;;;14.50;99.90;;;;;;20576658;28;20109;-41
2023/09/26 02:51:04;;;;;;;14.80;11.38;;;14.50;99.90;;;;;;20579219;28;20042;-41
2023/09/26 03:01:05;;;;;;;15.98;12.30;;;14.50;99.90;;;;;;20578438;28;20150;-41
2023/09/26 03:11:05;;;;;;;15.35;12.13;;;14.40;99.90;;;;;;20580688;28;20039;-41
2023/09/26 03:21:06;;;;;;;15.05;12.35;;;14.30;99.90;;;;;;20585260;28;20061;-41
2023/09/26 03:31:08;;;;;;;17.20;12.70;;;14.30;99.90;;;;;;20587576;28;20027;-41
2023/09/26 03:41:09;;;;;;;15.55;13.27;;;14.20;99.90;;;;;;20580028;28;20260;-41
2023/09/26 03:51:12;;;;;;;18.77;14.23;;;14.20;99.90;;;;;;20576822;28;20054;-41
2023/09/26 04:01:14;;;;;;;20.67;16.98;;;14.20;99.90;;;;;;20577549;28;20042;-41
2023/09/26 04:11:16;;;;;;;27.90;19.33;;;14.20;99.90;;;;;;20579790;28;20038;-41
2023/09/26 04:21:17;;;;;;;24.85;19.63;;;14.30;99.90;;;;;;20574032;28;20066;-41
2023/09/26 04:31:18;;;;;;;29.52;20.85;;;14.30;99.90;;;;;;20575158;28;20065;-41
2023/09/26 04:41:18;;;;;;;24.00;20.05;;;14.50;99.90;;;;;;20569707;28;20054;-41
2023/09/26 04:51:20;;;;;;;23.40;19.15;;;14.50;99.90;;;;;;20573928;28;20047;-41
2023/09/26 05:01:24;;;;;;;24.65;19.60;;;14.20;99.90;;;;;;20568505;28;20042;-41
2023/09/26 05:11:27;;;;;;;23.75;20.10;;;14.10;99.90;;;;;;20580133;28;20042;-41
2023/09/26 05:21:28;;;;;;;28.23;22.90;;;14.00;99.90;;;;;;20584176;28;20553;-41
2023/09/26 05:31:30;;;;;;;26.85;21.27;;;14.00;99.90;;;;;;20584616;28;20045;-41
2023/09/26 05:41:30;;;;;;;25.15;19.95;;;14.00;99.90;;;;;;20587224;28;20232;-41
2023/09/26 05:51:31;;;;;;;27.13;20.65;;;14.00;99.90;;;;;;20565820;28;22549;-42
2023/09/26 06:01:32;;;;;;;26.52;21.35;;;14.00;99.90;;;;;;20565235;28;20378;-42
2023/09/26 06:11:32;;;;;;;31.63;21.77;;;14.10;99.90;;;;;;20559637;28;20949;-42
2023/09/26 06:21:33;;;;;;;32.70;21.55;;;14.20;99.90;;;;;;20592496;28;20038;-42
2023/09/26 06:31:34;;;;;;;26.48;19.92;;;14.30;99.90;;;;;;20594775;28;20053;-42
2023/09/26 06:41:34;;;;;;;26.63;18.48;;;14.40;99.90;;;;;;20588722;28;20145;-42
2023/09/26 06:51:35;;;;;;;23.92;17.90;;;14.50;99.90;;;;;;20582839;28;20502;-42
2023/09/26 07:01:35;;;;;;;25.88;18.13;;;14.70;99.90;;;;;;20583978;28;21074;-42
2023/09/26 07:11:36;;;;;;;18.90;15.40;;;14.80;99.90;;;;;;20585961;28;20491;-40
2023/09/26 07:21:36;;;;;;;20.00;15.13;;;15.00;99.90;;;;;;20580388;28;20038;-40
2023/09/26 07:31:39;;;;;;;16.40;13.20;;;15.30;99.90;;;;;;20582249;28;20557;-41
2023/09/26 07:41:39;;;;;;;15.00;12.68;;;15.40;99.90;;;;;;20580376;28;20096;-41
2023/09/26 07:51:40;;;;;;;19.85;16.40;;;15.50;99.90;;;;;;20581629;28;20493;-41
2023/09/26 08:01:41;;;;;;;21.27;17.05;;;15.60;97.50;;;;;;20585803;28;20048;-41
2023/09/26 08:11:42;;;;;;;25.30;18.90;;;16.00;73.20;;;;;;20582020;28;20038;-41
2023/09/26 08:21:44;;;;;;;21.13;15.15;;;16.30;2.60;;;;;;20578947;28;20596;-41
2023/09/26 08:31:45;;;;;;;21.60;15.10;;;16.50;1.00;;;;;;20581935;28;20043;-41
2023/09/26 08:41:46;;;;;;;19.45;15.88;;;16.80;1.00;;;;;;20575594;28;20607;-41
2023/09/26 08:51:47;;;;;;;16.90;11.98;;;17.00;1.00;;;;;;20582129;28;20080;-41
2023/09/26 09:01:49;;;;;;;17.67;12.30;;;17.20;1.00;;;;;;20577182;28;20376;-41
2023/09/26 09:11:49;;;;;;;16.77;11.65;;;17.50;1.00;;;;;;20579295;28;20042;-41
2023/09/26 09:21:50;;;;;;;14.77;12.05;;;17.70;1.00;;;;;;20577507;28;20046;-41
2023/09/26 09:31:51;;;;;;;12.35;9.73;;;18.10;1.00;;;;;;20575087;28;20653;-41
2023/09/26 09:41:57;;;;;;;12.32;10.18;;;18.20;1.00;;;;;;20574333;28;20050;-41
2023/09/26 09:52:02;;;;;;;13.63;10.98;;;18.20;1.00;;;;;;20578436;28;20066;-41
2023/09/26 10:02:04;;;;;;;12.57;9.27;;;18.30;1.00;;;;;;20592852;28;20470;-41
2023/09/26 10:12:06;;;;;;;12.75;10.27;;;18.30;1.00;;;;;;20586007;28;20046;-41
2023/09/26 10:22:15;;;;;;;11.57;8.30;;;18.50;1.00;;;;;;20587361;28;20140;-41
2023/09/26 10:32:32;;;;;;;8.38;6.13;;;19.20;1.00;;;;;;20596489;28;20053;-41
2023/09/26 10:42:32;;;;;;;11.20;8.05;;;19.50;1.00;;;;;;20595178;28;20050;-41
2023/09/26 10:52:34;;;;;;;11.15;7.50;;;20.00;1.00;;;;;;20593864;28;20047;-41
2023/09/26 11:02:34;;;;;;;7.90;5.65;;;20.30;1.00;;;;;;20588046;28;21632;-42
2023/09/26 11:12:35;;;;;;;8.15;5.40;;;20.70;1.00;;;;;;20582207;28;20143;-42
2023/09/26 11:22:47;;;;;;;7.97;4.43;;;21.70;1.00;;;;;;20584980;28;20042;-42
2023/09/26 11:32:50;;;;;;;6.22;5.20;;;21.90;1.00;;;;;;20586655;28;20129;-42
2023/09/26 11:42:55;;;;;;;6.05;4.38;;;21.90;1.00;;;;;;20582081;28;20453;-42
2023/09/26 11:53:02;;;;;;;7.43;4.88;;;22.00;1.00;;;;;;20583413;28;20050;-42
2023/09/26 12:03:03;;;;;;;5.80;3.58;;;22.10;1.00;;;;;;20585815;28;20053;-42
2023/09/26 12:13:06;;;;;;;5.55;2.78;;;22.80;1.00;;;;;;20581496;28;20046;-42
2023/09/26 12:23:09;;;;;;;6.32;3.45;;;22.70;1.00;;;;;;20584198;28;20588;-42
2023/09/26 12:33:10;;;;;;;7.13;3.10;;;22.60;1.00;;;;;;20588774;28;20055;-42
2023/09/26 12:43:11;;;;;;;4.93;2.53;;;22.20;1.00;;;;;;20585508;28;20043;-42
2023/09/26 12:53:12;;;;;;;6.18;3.03;;;21.80;1.00;;;;;;20584445;28;20034;-42
2023/09/26 13:03:13;;;;;;;5.77;3.37;;;21.70;1.00;;;;;;20579523;28;20035;-42
2023/09/26 13:13:14;;;;;;;5.85;2.65;;;21.40;1.00;;;;;;20577906;28;20057;-42
2023/09/26 13:23:15;;;;;;;5.07;2.67;;;21.50;1.00;;;;;;20579196;28;20042;-41
2023/09/26 13:33:15;;;;;;;3.55;2.45;;;21.60;1.00;;;;;;20593531;28;20055;-42
2023/09/26 13:43:16;;;;;;;5.55;2.80;;;21.60;1.00;;;;;;20596270;28;20038;-42
2023/09/26 13:53:17;;;;;;;4.25;2.47;;;21.80;1.00;;;;;;20589206;28;20043;-42
2023/09/26 14:03:17;;;;;;;4.67;2.87;;;22.10;1.00;;;;;;20591981;28;20517;-42
2023/09/26 14:13:27;;;;;;;4.68;2.92;;;22.20;1.00;;;;;;20589679;28;20044;-42
2023/09/26 14:23:27;;;;;;;5.47;2.70;;;22.10;1.00;;;;;;20590070;28;20046;-41
2023/09/26 14:33:28;;;;;;;5.60;3.22;;;22.00;1.00;;;;;;20589770;28;20092;-42
2023/09/26 14:43:28;;;;;;;6.25;3.85;;;21.90;1.00;;;;;;20592057;28;20629;-41
2023/09/26 14:53:29;;;;;;;6.78;4.28;;;21.90;1.00;;;;;;20588533;28;20026;-42
2023/09/26 15:03:30;;;;;;;6.53;2.95;;;21.80;1.00;;;;;;20583046;28;20044;-41
2023/09/26 15:13:30;;;;;;;5.60;3.10;;;21.90;1.00;;;;;;20572309;28;20401;-42
2023/09/26 15:23:31;;;;;;;5.20;2.70;;;22.00;1.00;;;;;;20565514;28;20137;-41
2023/09/26 15:33:32;;;;;;;5.97;3.25;;;21.80;1.00;;;;;;20572195;28;20062;-42
2023/09/26 15:43:33;;;;;;;6.10;3.30;;;21.70;1.00;;;;;;20576822;28;20046;-42
2023/09/26 15:53:34;;;;;;;6.00;3.25;;;21.50;1.00;;;;;;20574827;28;20574;-42
2023/09/26 16:03:35;;;;;;;5.30;2.70;;;21.30;1.00;;;;;;20588342;28;20066;-42
2023/09/26 16:13:35;;;;;;;4.50;2.92;;;21.10;1.00;;;;;;20592697;28;20034;-42
2023/09/26 16:23:36;;;;;;;4.65;2.42;;;21.00;1.00;;;;;;20589968;28;20046;-42
2023/09/26 16:33:36;;;;;;;5.57;3.28;;;20.80;1.00;;;;;;20582611;28;20046;-42
2023/09/26 16:43:37;;;;;;;6.75;3.22;;;21.00;1.00;;;;;;20574537;28;20262;-42
2023/09/26 16:53:39;;;;;;;4.80;2.90;;;20.80;1.00;;;;;;20572704;28;20133;-41
2023/09/26 17:03:40;;;;;;;5.70;3.03;;;20.60;1.00;;;;;;20582008;28;20046;-41
2023/09/26 17:13:40;;;;;;;4.87;2.77;;;20.40;1.00;;;;;;20579033;28;20038;-41
2023/09/26 17:23:41;;;;;;;6.38;3.20;;;20.40;1.00;;;;;;20567615;28;20050;-42
2023/09/26 17:33:41;;;;;;;6.68;3.28;;;20.10;1.00;;;;;;20577596;28;20089;-42
2023/09/26 17:43:42;;;;;;;4.47;2.78;;;19.70;1.00;;;;;;20580276;28;20038;-41
2023/09/26 17:53:42;;;;;;;5.82;3.05;;;19.60;1.00;;;;;;20569135;28;20038;-41
2023/09/26 18:03:43;;;;;;;7.82;3.95;;;19.50;1.00;;;;;;20573537;28;20054;-41
2023/09/26 18:13:43;;;;;;;11.60;8.18;;;19.40;1.00;;;;;;20583240;28;20038;-41
2023/09/26 18:23:44;;;;;;;8.47;5.40;;;19.20;1.00;;;;;;20593145;28;20073;-41
2023/09/26 18:33:46;;;;;;;7.47;4.40;;;19.10;1.00;;;;;;20585595;28;20063;-43
2023/09/26 18:43:46;;;;;;;5.97;3.47;;;19.00;1.00;;;;;;20589328;28;20052;-41
2023/09/26 18:53:47;;;;;;;6.83;3.70;;;19.00;1.00;;;;;;20573084;28;20035;-42
2023/09/26 19:03:50;;;;;;;4.45;3.30;;;18.90;1.00;;;;;;20568530;28;20076;-41
2023/09/26 19:13:50;;;;;;;6.00;3.67;;;19.00;1.00;;;;;;20573398;28;20039;-41
2023/09/26 19:23:51;;;;;;;6.07;3.83;;;18.80;1.00;;;;;;20570872;28;20580;-41
2023/09/26 19:33:52;;;;;;;6.60;3.90;;;18.70;1.00;;;;;;20576045;28;20061;-41
2023/09/26 19:43:52;;;;;;;7.67;4.43;;;18.80;1.00;;;;;;20573631;28;20057;-41
2023/09/26 19:53:53;;;;;;;5.90;3.65;;;18.80;1.00;;;;;;20569142;28;20042;-41
2023/09/26 20:03:53;;;;;;;6.05;4.10;;;18.80;1.00;;;;;;20573466;28;20038;-41
2023/09/26 20:13:54;;;;;;;6.67;4.30;;;18.80;1.00;;;;;;20562320;28;20049;-41
2023/09/26 20:23:54;;;;;;;7.55;4.30;;;18.80;1.00;;;;;;20576015;28;20043;-42
2023/09/26 20:33:55;;;;;;;6.40;4.03;;;18.60;1.00;;;;;;20576143;28;20042;-41
2023/09/26 20:43:56;;;;;;;7.47;5.28;;;18.50;1.00;;;;;;20576525;28;20054;-42
2023/09/26 20:53:56;;;;;;;6.28;4.20;;;18.50;1.00;;;;;;20571936;28;20679;-41
2023/09/26 21:03:58;;;;;;;7.80;4.90;;;18.60;1.00;;;;;;20575042;28;20120;-41
2023/09/26 21:13:59;;;;;;;6.30;4.70;;;18.50;1.00;;;;;;20570671;28;20074;-41
2023/09/26 21:24:00;;;;;;;6.95;4.85;;;18.30;1.00;;;;;;20567638;28;20046;-41
2023/09/26 21:34:02;;;;;;;7.50;4.70;;;18.40;1.00;;;;;;20567250;28;20812;-41
2023/09/26 21:44:02;;;;;;;5.65;4.38;;;18.40;1.00;;;;;;20567593;28;20054;-41
2023/09/26 21:54:03;;;;;;;6.83;4.60;;;18.40;1.00;;;;;;20578127;28;20045;-41
2023/09/26 22:04:04;;;;;;;7.45;4.95;;;18.20;1.00;;;;;;20576910;28;20051;-41
2023/09/26 22:14:05;;;;;;;7.45;4.85;;;18.10;1.00;;;;;;20574322;28;20038;-41
2023/09/26 22:24:06;;;;;;;6.57;5.20;;;18.20;1.00;;;;;;20574034;28;20782;-41
2023/09/26 22:34:06;;;;;;;7.45;5.72;;;18.10;1.00;;;;;;20584497;28;20410;-41
2023/09/26 22:44:07;;;;;;;5.82;4.93;;;17.80;1.00;;;;;;20577017;28;20058;-41
2023/09/26 22:54:07;;;;;;;9.13;6.15;;;17.70;1.00;;;;;;20575965;28;20611;-41
2023/09/26 23:04:08;;;;;;;7.32;4.95;;;17.80;1.00;;;;;;20574132;28;20077;-41
2023/09/26 23:14:08;;;;;;;9.50;6.45;;;17.60;1.00;;;;;;20575383;28;20053;-41
2023/09/26 23:24:09;;;;;;;6.93;5.50;;;17.60;1.00;;;;;;20579277;28;20507;-41
2023/09/26 23:34:10;;;;;;;7.13;5.57;;;17.40;1.00;;;;;;20577028;28;20524;-41
2023/09/26 23:44:14;;;;;;;10.10;5.68;;;17.10;1.00;;;;;;20579436;28;20788;-41
2023/09/26 23:54:14;;;;;;;8.38;6.50;;;16.90;1.00;;;;;;20575001;28;20057;-41
